Needham Market, United Kingdom
Current Conditions -  °F | °C
As of 3:50 AM on Friday 28 Nov 2014 (Local Time) from EGUW Reporting Station
Drizzle Drizzle  
Wind Chill: 10°   Ceiling: 1300
Heat Index: 10°   Visibility: 5mi
Dew Point:   Wind: 6mph
Humidity: 94%   Direction: 80°E
Pressure: 29.62"   Gusts: NA
Location:  52.16°N, 1.05°E
Report Text: EGUW 280350Z 08005KT 8000 -DZ OVC013 10/09 Q1003 GRN
Loading
Personal Weather Stations






























Interactive Weather Map New forecast layout! Learn more

10-Day Weather Forecast

Advertisements
Track Severe Weather on mobile